Time,TemperatureF,DewpointF,PressureIn,WindDirection,WindDirectionDegrees,WindSpeedMPH,WindSpeedGustMPH,Humidity,HourlyPrecipIn,Conditions,Clouds,dailyrainin,SoftwareType,DateUTC
2013-01-10 00:01:00,34.9,33.0,29.94,SW,225,0.0,1.1,93,0.00,,,0.00,WUHU216HW,2013-01-10 08:01:00,
2013-01-10 00:06:00,34.9,33.0,29.94,SW,225,0.0,0.4,93,0.00,,,0.00,WUHU216HW,2013-01-10 08:06:00,
2013-01-10 00:11:00,34.9,33.0,29.94,SSW,203,0.0,0.7,93,0.00,,,0.00,WUHU216HW,2013-01-10 08:11:00,
2013-01-10 00:16:00,34.9,33.0,29.94,SW,225,0.2,0.7,93,0.00,,,0.00,WUHU216HW,2013-01-10 08:16:00,
2013-01-10 00:21:00,34.9,33.0,29.94,SW,225,0.0,0.4,93,0.00,,,0.00,WUHU216HW,2013-01-10 08:21:00,
2013-01-10 00:26:00,35.1,33.2,29.94,SW,225,0.4,0.4,93,0.00,,,0.00,WUHU216HW,2013-01-10 08:26:00,
2013-01-10 00:31:00,35.3,33.7,29.94,SSW,203,0.4,1.1,94,0.00,,,0.00,WUHU216HW,2013-01-10 08:31:00,
2013-01-10 00:36:00,35.3,33.7,29.94,SW,225,0.0,1.1,94,0.00,,,0.00,WUHU216HW,2013-01-10 08:36:00,
2013-01-10 00:41:00,35.3,33.7,29.95,SW,225,0.2,1.1,94,0.00,,,0.00,WUHU216HW,2013-01-10 08:41:00,
2013-01-10 00:46:00,35.5,33.8,29.95,SW,225,0.0,0.2,94,0.00,,,0.00,WUHU216HW,2013-01-10 08:46:00,
2013-01-10 00:51:00,35.5,33.8,29.95,SW,225,0.0,0.2,94,0.00,,,0.00,WUHU216HW,2013-01-10 08:51:00,
2013-01-10 00:56:00,35.5,33.8,29.95,SW,225,0.0,0.2,94,0.00,,,0.00,WUHU216HW,2013-01-10 08:56:00,
2013-01-10 01:01:00,35.5,33.8,29.95,SSW,203,0.4,1.6,94,0.00,,,0.00,WUHU216HW,2013-01-10 09:01:00,
2013-01-10 01:06:00,35.5,33.8,29.95,WSW,248,1.1,1.6,94,0.00,,,0.00,WUHU216HW,2013-01-10 09:06:00,
2013-01-10 01:11:00,35.5,33.8,29.95,SW,225,1.1,1.6,94,0.00,,,0.00,WUHU216HW,2013-01-10 09:11:00,
2013-01-10 01:16:00,35.5,33.8,29.95,WSW,248,1.1,1.6,94,0.00,,,0.00,WUHU216HW,2013-01-10 09:16:00,
2013-01-10 01:21:00,35.5,33.8,29.96,SSW,203,0.7,1.6,94,0.00,,,0.00,WUHU216HW,2013-01-10 09:21:00,
2013-01-10 01:26:00,35.3,33.7,29.96,SSW,203,1.3,1.6,94,0.00,,,0.00,WUHU216HW,2013-01-10 09:26:00,
2013-01-10 01:31:00,35.3,33.7,29.96,South,180,0.4,1.6,94,0.00,,,0.00,WUHU216HW,2013-01-10 09:31:00,
2013-01-10 01:36:00,35.5,33.8,29.96,South,180,0.4,1.6,94,0.00,,,0.00,WUHU216HW,2013-01-10 09:36:00,
2013-01-10 01:41:00,35.3,33.7,29.96,SSW,203,0.0,1.6,94,0.00,,,0.00,WUHU216HW,2013-01-10 09:41:00,
2013-01-10 01:46:00,35.5,33.8,29.96,SSE,158,0.4,1.3,94,0.00,,,0.00,WUHU216HW,2013-01-10 09:46:00,
2013-01-10 01:51:00,35.5,33.8,29.96,SSE,158,0.4,1.1,94,0.00,,,0.00,WUHU216HW,2013-01-10 09:51:00,
2013-01-10 01:56:00,35.5,33.8,29.96,SSW,203,0.2,1.1,94,0.00,,,0.00,WUHU216HW,2013-01-10 09:56:00,
2013-01-10 02:01:00,35.5,33.8,29.96,SSE,158,1.1,1.6,94,0.00,,,0.00,WUHU216HW,2013-01-10 10:01:00,
2013-01-10 02:06:00,35.3,33.7,29.96,South,180,0.7,1.6,94,0.00,,,0.00,WUHU216HW,2013-01-10 10:06:00,
2013-01-10 02:11:00,35.3,33.7,29.96,SSE,158,0.4,1.6,94,0.00,,,0.00,WUHU216HW,2013-01-10 10:11:00,
2013-01-10 02:16:00,35.1,33.5,29.96,SSE,158,0.4,0.9,94,0.00,,,0.00,WUHU216HW,2013-01-10 10:16:00,
2013-01-10 02:21:00,34.9,33.3,29.96,SSW,203,0.4,0.9,94,0.00,,,0.00,WUHU216HW,2013-01-10 10:21:00,
2013-01-10 02:26:00,34.9,33.3,29.96,South,180,0.0,0.7,94,0.00,,,0.00,WUHU216HW,2013-01-10 10:26:00,
2013-01-10 02:31:00,34.7,33.1,29.96,SSE,158,0.0,0.7,94,0.00,,,0.00,WUHU216HW,2013-01-10 10:31:00,
2013-01-10 02:36:00,34.6,32.9,29.97,SSW,203,0.4,0.4,94,0.00,,,0.00,WUHU216HW,2013-01-10 10:36:00,
2013-01-10 02:41:00,34.6,32.9,29.96,SSE,158,0.7,0.7,94,0.00,,,0.00,WUHU216HW,2013-01-10 10:41:00,
2013-01-10 02:46:00,34.6,32.9,29.96,SSE,158,0.2,0.7,94,0.00,,,0.00,WUHU216HW,2013-01-10 10:46:00,
2013-01-10 02:51:00,34.4,32.8,29.96,SSE,158,0.0,0.7,94,0.00,,,0.00,WUHU216HW,2013-01-10 10:51:00,
2013-01-10 02:56:00,34.4,32.8,29.97,SSE,158,0.0,0.2,94,0.00,,,0.00,WUHU216HW,2013-01-10 10:56:00,
2013-01-10 03:01:00,34.2,32.6,29.96,SSE,158,0.0,0.0,94,0.00,,,0.00,WUHU216HW,2013-01-10 11:01:00,
2013-01-10 03:06:00,34.0,32.4,29.96,SSE,158,0.2,0.4,94,0.00,,,0.00,WUHU216HW,2013-01-10 11:06:00,
2013-01-10 03:11:00,33.8,32.2,29.96,SSE,158,0.0,0.4,94,0.00,,,0.00,WUHU216HW,2013-01-10 11:11:00,
2013-01-10 03:16:00,33.8,32.2,29.96,SSW,203,0.4,0.4,94,0.00,,,0.00,WUHU216HW,2013-01-10 11:16:00,
2013-01-10 03:21:00,33.8,32.2,29.96,SSW,203,0.4,0.4,94,0.00,,,0.00,WUHU216HW,2013-01-10 11:21:00,
2013-01-10 03:28:00,33.8,32.2,29.96,SE,135,0.4,0.7,94,0.00,,,0.00,WUHU216HW,2013-01-10 11:28:00,
2013-01-10 03:29:00,33.7,32.0,29.95,SSW,203,0.4,0.4,94,0.00,,,0.00,WUHU216HW,2013-01-10 11:29:00,
2013-01-10 03:33:00,33.7,32.0,29.95,SSW,203,0.4,0.7,94,0.00,,,0.00,WUHU216HW,2013-01-10 11:33:00,
2013-01-10 03:38:00,33.7,32.0,29.95,SSW,203,0.4,0.4,94,0.00,,,0.00,WUHU216HW,2013-01-10 11:38:00,
2013-01-10 03:59:00,33.3,31.4,29.96,SSW,203,0.4,0.4,93,0.00,,,0.00,WUHU216HW,2013-01-10 11:59:00,
2013-01-10 04:04:00,33.3,31.4,29.96,SW,225,1.1,1.1,93,0.00,,,0.00,WUHU216HW,2013-01-10 12:04:00,
2013-01-10 04:09:00,33.3,31.4,29.96,SW,225,1.1,1.1,93,0.00,,,0.00,WUHU216HW,2013-01-10 12:09:00,
2013-01-10 04:29:00,32.8,31.0,29.96,SSE,158,0.4,0.4,93,0.00,,,0.00,WUHU216HW,2013-01-10 12:29:00,
2013-01-10 04:30:00,32.8,31.0,29.96,SSE,158,0.4,0.4,93,0.00,,,0.00,WUHU216HW,2013-01-10 12:30:00,
2013-01-10 04:35:00,32.8,31.0,29.96,SSE,158,0.4,0.4,93,0.00,,,0.00,WUHU216HW,2013-01-10 12:35:00,
2013-01-10 04:59:00,32.9,31.4,29.96,SSW,203,0.0,0.0,94,0.00,,,0.00,WUHU216HW,2013-01-10 12:59:00,
2013-01-10 05:00:00,32.9,31.4,29.96,SSW,203,0.0,0.0,94,0.00,,,0.00,WUHU216HW,2013-01-10 13:00:00,
2013-01-10 05:05:00,32.9,31.4,29.96,SSW,203,0.0,0.0,94,0.00,,,0.00,WUHU216HW,2013-01-10 13:05:00,
2013-01-10 05:30:00,32.9,31.4,29.96,SSW,203,1.1,1.1,94,0.00,,,0.00,WUHU216HW,2013-01-10 13:30:00,
2013-01-10 05:35:00,32.9,31.4,29.96,SSW,203,1.1,1.1,94,0.00,,,0.00,WUHU216HW,2013-01-10 13:35:00,
2013-01-10 05:59:00,33.1,31.5,29.96,SSW,203,0.4,0.4,94,0.00,,,0.00,WUHU216HW,2013-01-10 13:59:00,
2013-01-10 06:00:00,33.1,31.5,29.96,SSW,203,0.4,0.4,94,0.00,,,0.00,WUHU216HW,2013-01-10 14:00:00,
2013-01-10 06:05:00,33.1,31.5,29.96,SSW,203,0.4,0.4,94,0.00,,,0.00,WUHU216HW,2013-01-10 14:05:00,
2013-01-10 06:30:00,33.5,31.9,29.97,SSW,203,1.8,1.8,94,0.00,,,0.00,WUHU216HW,2013-01-10 14:30:00,
2013-01-10 06:35:00,33.5,31.9,29.97,SSW,203,1.8,1.8,94,0.00,,,0.00,WUHU216HW,2013-01-10 14:35:00,
2013-01-10 06:59:00,34.4,32.8,29.98,SSW,203,1.1,1.1,94,0.00,,,0.00,WUHU216HW,2013-01-10 14:59:00,
2013-01-10 07:00:00,34.4,32.8,29.98,SSW,203,1.1,1.1,94,0.00,,,0.00,WUHU216HW,2013-01-10 15:00:00,
2013-01-10 07:05:00,34.4,32.8,29.98,SSW,203,1.1,1.1,94,0.00,,,0.00,WUHU216HW,2013-01-10 15:05:00,
2013-01-10 07:30:00,36.2,34.8,29.99,SW,225,1.3,1.3,95,0.00,,,0.00,WUHU216HW,2013-01-10 15:30:00,
2013-01-10 07:35:00,36.2,34.8,29.99,SW,225,1.3,1.3,95,0.00,,,0.00,WUHU216HW,2013-01-10 15:35:00,
2013-01-10 07:59:00,36.0,34.4,29.99,SSW,203,1.1,1.1,94,0.00,,,0.00,WUHU216HW,2013-01-10 15:59:00,
2013-01-10 08:00:00,36.0,34.4,29.99,SSW,203,1.1,1.1,94,0.00,,,0.00,WUHU216HW,2013-01-10 16:00:00,
2013-01-10 08:05:00,36.0,34.4,29.99,SSW,203,1.1,1.1,94,0.00,,,0.00,WUHU216HW,2013-01-10 16:05:00,
2013-01-10 08:30:00,35.6,34.0,30.00,South,180,0.4,0.4,94,0.00,,,0.00,WUHU216HW,2013-01-10 16:30:00,
2013-01-10 08:35:00,35.6,34.0,30.00,South,180,0.4,0.4,94,0.00,,,0.00,WUHU216HW,2013-01-10 16:35:00,
2013-01-10 09:00:00,36.0,34.7,30.00,South,180,3.6,3.6,95,0.00,,,0.00,WUHU216HW,2013-01-10 17:00:00,
2013-01-10 09:05:00,36.0,34.4,30.00,WSW,248,3.6,3.6,94,0.00,,,0.00,WUHU216HW,2013-01-10 17:05:00,
2013-01-10 09:30:00,36.4,34.7,30.00,SSE,158,0.7,0.7,94,0.00,,,0.00,WUHU216HW,2013-01-10 17:30:00,
2013-01-10 09:35:00,36.4,34.7,30.00,SSE,158,0.7,0.7,94,0.00,,,0.00,WUHU216HW,2013-01-10 17:35:00,
2013-01-10 09:59:00,37.3,35.6,30.01,SSW,203,4.0,4.0,94,0.00,,,0.00,WUHU216HW,2013-01-10 17:59:00,
2013-01-10 10:00:00,37.3,35.6,30.01,SSW,203,4.0,4.0,94,0.00,,,0.00,WUHU216HW,2013-01-10 18:00:00,
2013-01-10 10:05:00,37.3,35.6,30.01,SSW,203,4.0,4.0,94,0.00,,,0.00,WUHU216HW,2013-01-10 18:05:00,
2013-01-10 10:30:00,38.7,36.8,30.01,SSW,203,1.8,1.8,93,0.00,,,0.00,WUHU216HW,2013-01-10 18:30:00,
2013-01-10 10:35:00,38.7,36.8,30.01,SSW,203,1.8,1.8,93,0.00,,,0.00,WUHU216HW,2013-01-10 18:35:00,
2013-01-10 10:59:00,39.8,37.9,30.00,SSE,158,0.4,0.4,93,0.00,,,0.00,WUHU216HW,2013-01-10 18:59:00,
2013-01-10 11:00:00,39.8,37.9,30.00,SSE,158,0.4,0.4,93,0.00,,,0.00,WUHU216HW,2013-01-10 19:00:00,
2013-01-10 11:05:00,39.8,37.9,30.00,SSE,158,0.4,0.4,93,0.00,,,0.00,WUHU216HW,2013-01-10 19:05:00,
2013-01-10 11:30:00,41.0,38.9,30.00,SSW,203,1.3,1.3,92,0.00,,,0.00,WUHU216HW,2013-01-10 19:30:00,
2013-01-10 11:35:00,41.0,38.9,30.00,SSW,203,1.3,1.3,92,0.00,,,0.00,WUHU216HW,2013-01-10 19:35:00,
2013-01-10 12:00:00,42.1,39.7,29.99,SSW,203,0.2,0.2,91,0.00,,,0.00,WUHU216HW,2013-01-10 20:00:00,
2013-01-10 12:05:00,42.1,39.7,29.99,SSW,203,0.0,0.2,91,0.00,,,0.00,WUHU216HW,2013-01-10 20:05:00,
2013-01-10 12:10:00,42.1,39.7,29.99,SSW,203,0.0,0.0,91,0.00,,,0.00,WUHU216HW,2013-01-10 20:10:00,
2013-01-10 12:30:00,43.6,40.9,29.99,SW,225,0.2,0.2,90,0.00,,,0.00,WUHU216HW,2013-01-10 20:30:00,
2013-01-10 12:35:00,43.6,40.9,29.99,SW,225,0.2,0.2,90,0.00,,,0.00,WUHU216HW,2013-01-10 20:35:00,
2013-01-10 12:59:00,45.2,41.6,29.99,SSE,158,1.3,1.3,87,0.00,,,0.00,WUHU216HW,2013-01-10 20:59:00,
2013-01-10 13:00:00,45.2,41.6,29.99,SSE,158,1.3,1.3,87,0.00,,,0.00,WUHU216HW,2013-01-10 21:00:00,
2013-01-10 13:05:00,45.2,41.6,29.99,SSE,158,1.3,1.3,87,0.00,,,0.00,WUHU216HW,2013-01-10 21:05:00,
2013-01-10 13:30:00,43.9,38.8,30.00,NNE,23,1.1,1.1,82,0.00,,,0.00,WUHU216HW,2013-01-10 21:30:00,
2013-01-10 13:35:00,43.9,38.8,30.00,NNE,23,1.1,1.1,82,0.00,,,0.00,WUHU216HW,2013-01-10 21:35:00,
2013-01-10 13:59:00,43.7,39.5,30.00,NNE,23,1.6,1.6,85,0.00,,,0.00,WUHU216HW,2013-01-10 21:59:00,
2013-01-10 14:00:00,43.7,39.5,30.00,NNE,23,1.6,1.6,85,0.00,,,0.00,WUHU216HW,2013-01-10 22:00:00,
2013-01-10 14:05:00,43.7,39.5,30.00,NNE,23,1.6,1.6,85,0.00,,,0.00,WUHU216HW,2013-01-10 22:05:00,
2013-01-10 14:30:00,42.8,38.9,30.01,NE,45,1.6,1.6,86,0.00,,,0.00,WUHU216HW,2013-01-10 22:30:00,
2013-01-10 14:35:00,42.8,38.9,30.01,NE,45,1.6,1.6,86,0.00,,,0.00,WUHU216HW,2013-01-10 22:35:00,
2013-01-10 14:59:00,43.6,39.6,30.01,ENE,68,1.1,1.1,86,0.00,,,0.00,WUHU216HW,2013-01-10 22:59:00,
2013-01-10 15:00:00,43.6,39.6,30.01,ENE,68,1.1,1.1,86,0.00,,,0.00,WUHU216HW,2013-01-10 23:00:00,
2013-01-10 15:05:00,43.6,39.6,30.01,ENE,68,1.1,1.1,86,0.00,,,0.00,WUHU216HW,2013-01-10 23:05:00,
2013-01-10 15:30:00,42.5,38.3,30.03,NNE,23,1.3,1.3,85,0.00,,,0.00,WUHU216HW,2013-01-10 23:30:00,
2013-01-10 15:35:00,42.5,38.3,30.03,NNE,23,1.3,1.3,85,0.00,,,0.00,WUHU216HW,2013-01-10 23:35:00,
2013-01-10 15:59:00,42.5,38.3,30.04,North,0,0.2,0.2,85,0.00,,,0.00,WUHU216HW,2013-01-10 23:59:00,
2013-01-10 16:00:00,42.5,38.3,30.04,North,0,0.2,0.2,85,0.00,,,0.00,WUHU216HW,2013-01-11 00:00:00,
2013-01-10 16:05:00,42.5,38.3,30.04,North,0,0.2,0.2,85,0.00,,,0.00,WUHU216HW,2013-01-11 00:05:00,
2013-01-10 16:30:00,42.1,38.5,30.04,NW,315,0.0,0.0,87,0.00,,,0.00,WUHU216HW,2013-01-11 00:30:00,
2013-01-10 16:35:00,42.1,38.5,30.04,NW,315,0.0,0.0,87,0.00,,,0.00,WUHU216HW,2013-01-11 00:35:00,
2013-01-10 17:00:00,41.8,38.2,30.04,WSW,248,0.4,0.4,87,0.00,,,0.00,WUHU216HW,2013-01-11 01:00:00,
2013-01-10 17:05:00,41.8,38.2,30.04,WSW,248,0.4,0.4,87,0.00,,,0.00,WUHU216HW,2013-01-11 01:05:00,
2013-01-10 17:10:00,41.8,38.2,30.04,SE,135,0.0,0.0,87,0.00,,,0.00,WUHU216HW,2013-01-11 01:10:00,
2013-01-10 17:15:00,41.6,38.0,30.02,NE,45,0.0,0.0,87,0.00,,,0.00,WUHU216HW,2013-01-11 01:15:00,
2013-01-10 17:20:00,41.4,38.1,30.01,NE,45,0.0,0.2,88,0.00,,,0.00,WUHU216HW,2013-01-11 01:20:00,
2013-01-10 17:25:00,41.2,37.9,30.00,NE,45,0.0,0.2,88,0.00,,,0.00,WUHU216HW,2013-01-11 01:25:00,
2013-01-10 17:30:00,41.0,37.7,30.02,NE,45,0.0,0.0,88,0.00,,,0.00,WUHU216HW,2013-01-11 01:30:00,
2013-01-10 17:35:00,40.7,37.7,30.03,WNW,293,0.4,0.4,89,0.00,,,0.00,WUHU216HW,2013-01-11 01:35:00,
2013-01-10 17:40:00,40.7,37.7,30.04,WSW,248,0.0,0.4,89,0.00,,,0.00,WUHU216HW,2013-01-11 01:40:00,
2013-01-10 17:45:00,40.7,37.7,30.04,WSW,248,0.0,0.4,89,0.00,,,0.00,WUHU216HW,2013-01-11 01:45:00,
2013-01-10 17:50:00,40.7,37.7,30.05,WSW,248,0.0,0.0,89,0.00,,,0.00,WUHU216HW,2013-01-11 01:50:00,
2013-01-10 17:55:00,40.7,37.7,30.05,WSW,248,0.0,0.0,89,0.00,,,0.00,WUHU216HW,2013-01-11 01:55:00,
2013-01-10 18:00:00,40.3,37.6,30.05,NNW,338,0.2,0.4,90,0.00,,,0.00,WUHU216HW,2013-01-11 02:00:00,
2013-01-10 18:05:00,40.0,37.3,30.05,NNW,338,0.0,0.4,90,0.00,,,0.00,WUHU216HW,2013-01-11 02:05:00,
2013-01-10 18:10:00,39.8,37.1,30.05,NNW,338,0.0,0.2,90,0.00,,,0.00,WUHU216HW,2013-01-11 02:10:00,
2013-01-10 18:15:00,39.8,37.1,30.06,NW,315,0.0,0.2,90,0.00,,,0.00,WUHU216HW,2013-01-11 02:15:00,
2013-01-10 18:20:00,40.3,37.9,30.06,SW,225,0.4,1.1,91,0.00,,,0.00,WUHU216HW,2013-01-11 02:20:00,
2013-01-10 18:25:00,40.7,38.3,30.06,SW,225,0.4,1.1,91,0.00,,,0.00,WUHU216HW,2013-01-11 02:25:00,
2013-01-10 18:30:00,40.7,38.3,30.05,SW,225,1.1,1.6,91,0.00,,,0.00,WUHU216HW,2013-01-11 02:30:00,
2013-01-10 18:35:00,40.3,37.6,30.05,West,270,0.4,2.5,90,0.00,,,0.00,WUHU216HW,2013-01-11 02:35:00,
2013-01-10 18:41:00,40.0,37.3,30.05,North,0,0.4,2.5,90,0.00,,,0.00,WUHU216HW,2013-01-11 02:41:00,
2013-01-10 18:46:00,39.6,36.9,30.05,NNW,338,0.0,1.1,90,0.00,,,0.00,WUHU216HW,2013-01-11 02:46:00,
2013-01-10 18:51:00,39.2,36.5,30.05,NNW,338,0.0,1.1,90,0.00,,,0.00,WUHU216HW,2013-01-11 02:51:00,
2013-01-10 18:56:00,39.2,36.8,30.06,WNW,293,0.7,0.7,91,0.00,,,0.00,WUHU216HW,2013-01-11 02:56:00,
2013-01-10 19:01:00,39.2,36.8,30.06,WNW,293,0.0,0.7,91,0.00,,,0.00,WUHU216HW,2013-01-11 03:01:00,
2013-01-10 19:06:00,39.4,37.0,30.06,West,270,0.2,0.7,91,0.00,,,0.00,WUHU216HW,2013-01-11 03:06:00,
2013-01-10 19:11:00,39.6,36.9,30.06,West,270,0.4,0.4,90,0.00,,,0.00,WUHU216HW,2013-01-11 03:11:00,
2013-01-10 19:16:00,39.4,36.7,30.06,WNW,293,0.0,0.4,90,0.00,,,0.00,WUHU216HW,2013-01-11 03:16:00,
2013-01-10 19:21:00,39.2,36.5,30.06,WNW,293,0.0,0.2,90,0.00,,,0.00,WUHU216HW,2013-01-11 03:21:00,
2013-01-10 19:26:00,39.1,36.4,30.06,WNW,293,0.0,0.0,90,0.00,,,0.00,WUHU216HW,2013-01-11 03:26:00,
2013-01-10 19:31:00,39.1,36.4,30.06,WNW,293,0.0,0.0,90,0.00,,,0.00,WUHU216HW,2013-01-11 03:31:00,
2013-01-10 19:36:00,38.9,36.2,30.06,West,270,0.0,0.0,90,0.00,,,0.00,WUHU216HW,2013-01-11 03:36:00,
2013-01-10 19:41:00,38.7,36.0,30.06,West,270,0.0,0.2,90,0.00,,,0.00,WUHU216HW,2013-01-11 03:41:00,
2013-01-10 19:46:00,38.5,35.8,30.06,West,270,0.0,0.2,90,0.00,,,0.00,WUHU216HW,2013-01-11 03:46:00,
2013-01-10 19:51:00,38.5,35.8,30.06,West,270,0.0,0.0,90,0.00,,,0.00,WUHU216HW,2013-01-11 03:51:00,
2013-01-10 19:56:00,38.5,36.1,30.07,West,270,0.0,0.0,91,0.00,,,0.00,WUHU216HW,2013-01-11 03:56:00,
2013-01-10 20:01:00,38.5,36.1,30.07,West,270,0.0,0.0,91,0.00,,,0.00,WUHU216HW,2013-01-11 04:01:00,
2013-01-10 20:06:00,38.5,35.8,30.07,West,270,0.0,0.4,90,0.00,,,0.00,WUHU216HW,2013-01-11 04:06:00,
2013-01-10 20:11:00,38.3,35.6,30.06,West,270,0.0,0.4,90,0.00,,,0.00,WUHU216HW,2013-01-11 04:11:00,
2013-01-10 20:16:00,38.2,35.7,30.06,WSW,248,0.0,0.2,91,0.00,,,0.00,WUHU216HW,2013-01-11 04:16:00,
2013-01-10 20:21:00,38.0,35.3,30.06,WSW,248,0.0,0.2,90,0.00,,,0.00,WUHU216HW,2013-01-11 04:21:00,
2013-01-10 20:26:00,38.2,35.5,30.07,WSW,248,0.4,0.4,90,0.00,,,0.00,WUHU216HW,2013-01-11 04:26:00,
2013-01-10 20:31:00,38.0,35.3,30.07,SW,225,1.3,1.3,90,0.00,,,0.00,WUHU216HW,2013-01-11 04:31:00,
2013-01-10 20:36:00,38.0,35.3,30.07,SSE,158,1.1,2.9,90,0.00,,,0.00,WUHU216HW,2013-01-11 04:36:00,
2013-01-10 20:41:00,37.8,35.1,30.07,West,270,0.9,2.9,90,0.00,,,0.00,WUHU216HW,2013-01-11 04:41:00,
2013-01-10 20:46:00,37.8,35.1,30.07,NNW,338,0.2,1.1,90,0.00,,,0.00,WUHU216HW,2013-01-11 04:46:00,
2013-01-10 20:52:00,37.4,34.7,30.07,WSW,248,0.0,0.9,90,0.00,,,0.00,WUHU216HW,2013-01-11 04:52:00,
2013-01-10 20:57:00,37.3,34.6,30.07,WSW,248,0.0,0.7,90,0.00,,,0.00,WUHU216HW,2013-01-11 04:57:00,
2013-01-10 21:00:00,37.3,34.6,30.07,WSW,248,0.0,0.2,90,0.00,,,0.00,WUHU216HW,2013-01-11 05:00:00,
2013-01-10 21:03:00,37.1,34.4,30.07,WSW,248,0.0,0.0,90,0.00,,,0.00,WUHU216HW,2013-01-11 05:03:00,
2013-01-10 21:08:00,37.1,34.4,30.06,WSW,248,0.2,0.2,90,0.00,,,0.00,WUHU216HW,2013-01-11 05:08:00,
2013-01-10 21:13:00,36.9,34.2,30.07,SW,225,0.0,0.4,90,0.00,,,0.00,WUHU216HW,2013-01-11 05:13:00,
2013-01-10 21:18:00,36.7,34.0,30.07,SW,225,0.0,0.4,90,0.00,,,0.00,WUHU216HW,2013-01-11 05:18:00,
2013-01-10 21:23:00,36.4,33.7,30.07,SW,225,0.0,0.2,90,0.00,,,0.00,WUHU216HW,2013-01-11 05:23:00,
2013-01-10 21:28:00,36.2,33.5,30.07,SSW,203,0.4,0.4,90,0.00,,,0.00,WUHU216HW,2013-01-11 05:28:00,
2013-01-10 21:33:00,35.8,33.1,30.07,SW,225,0.2,0.7,90,0.00,,,0.00,WUHU216HW,2013-01-11 05:33:00,
2013-01-10 21:38:00,35.6,32.9,30.07,West,270,0.0,0.7,90,0.00,,,0.00,WUHU216HW,2013-01-11 05:38:00,
2013-01-10 21:43:00,35.3,32.9,30.07,SW,225,0.7,0.7,91,0.00,,,0.00,WUHU216HW,2013-01-11 05:43:00,
2013-01-10 21:48:00,35.3,32.9,30.07,SSW,203,0.4,1.6,91,0.00,,,0.00,WUHU216HW,2013-01-11 05:48:00,
2013-01-10 21:53:00,35.3,32.9,30.07,SSW,203,0.4,1.6,91,0.00,,,0.00,WUHU216HW,2013-01-11 05:53:00,
2013-01-10 21:58:00,35.3,33.1,30.07,SSW,203,0.4,1.6,92,0.00,,,0.00,WUHU216HW,2013-01-11 05:58:00,
2013-01-10 22:03:00,35.5,33.3,30.07,SSW,203,0.2,1.6,92,0.00,,,0.00,WUHU216HW,2013-01-11 06:03:00,
2013-01-10 22:08:00,35.5,33.3,30.07,SW,225,1.3,2.2,92,0.00,,,0.00,WUHU216HW,2013-01-11 06:08:00,
2013-01-10 22:13:00,35.5,33.3,30.07,SW,225,0.4,2.2,92,0.00,,,0.00,WUHU216HW,2013-01-11 06:13:00,
2013-01-10 22:18:00,35.3,33.1,30.07,SW,225,2.0,2.5,92,0.00,,,0.00,WUHU216HW,2013-01-11 06:18:00,
2013-01-10 22:24:00,35.3,33.1,30.06,SW,225,0.4,2.5,92,0.00,,,0.00,WUHU216HW,2013-01-11 06:24:00,
2013-01-10 22:29:00,35.1,32.9,30.07,SW,225,0.4,2.0,92,0.00,,,0.00,WUHU216HW,2013-01-11 06:29:00,
2013-01-10 22:34:00,34.9,32.8,30.07,SSW,203,2.0,2.0,92,0.00,,,0.00,WUHU216HW,2013-01-11 06:34:00,
2013-01-10 22:38:00,34.9,32.8,30.07,SW,225,2.5,2.5,92,0.00,,,0.00,WUHU216HW,2013-01-11 06:38:00,
2013-01-10 22:44:00,34.9,32.8,30.06,SW,225,2.0,2.5,92,0.00,,,0.00,WUHU216HW,2013-01-11 06:44:00,
2013-01-10 22:49:00,34.9,32.8,30.06,South,180,1.1,2.5,92,0.00,,,0.00,WUHU216HW,2013-01-11 06:49:00,
2013-01-10 22:54:00,34.7,32.6,30.06,SSW,203,1.1,2.0,92,0.00,,,0.00,WUHU216HW,2013-01-11 06:54:00,
2013-01-10 22:59:00,34.7,32.6,30.06,SSW,203,0.7,2.5,92,0.00,,,0.00,WUHU216HW,2013-01-11 06:59:00,
2013-01-10 23:04:00,34.7,32.6,30.06,SSW,203,0.7,2.5,92,0.00,,,0.00,WUHU216HW,2013-01-11 07:04:00,
2013-01-10 23:09:00,34.6,32.4,30.06,SW,225,1.1,2.0,92,0.00,,,0.00,WUHU216HW,2013-01-11 07:09:00,
2013-01-10 23:14:00,34.6,32.4,30.06,SW,225,1.1,2.5,92,0.00,,,0.00,WUHU216HW,2013-01-11 07:14:00,
2013-01-10 23:19:00,34.7,32.6,30.07,SW,225,0.7,2.5,92,0.00,,,0.00,WUHU216HW,2013-01-11 07:19:00,
2013-01-10 23:24:00,34.7,32.6,30.06,SSW,203,0.9,1.8,92,0.00,,,0.00,WUHU216HW,2013-01-11 07:24:00,
2013-01-10 23:29:00,34.9,32.8,30.06,SSW,203,0.4,1.8,92,0.00,,,0.00,WUHU216HW,2013-01-11 07:29:00,
2013-01-10 23:34:00,34.7,32.6,30.06,SSW,203,0.4,1.1,92,0.00,,,0.00,WUHU216HW,2013-01-11 07:34:00,
2013-01-10 23:39:00,34.7,32.6,30.06,SW,225,0.4,1.1,92,0.00,,,0.00,WUHU216HW,2013-01-11 07:39:00,
2013-01-10 23:44:00,34.6,32.4,30.07,SW,225,0.0,1.1,92,0.00,,,0.00,WUHU216HW,2013-01-11 07:44:00,
2013-01-10 23:49:00,34.2,32.0,30.07,SW,225,0.0,0.7,92,0.00,,,0.00,WUHU216HW,2013-01-11 07:49:00,
2013-01-10 23:54:00,34.2,32.3,30.07,NE,45,0.0,0.4,93,0.00,,,0.00,WUHU216HW,2013-01-11 07:54:00,
2013-01-10 23:59:00,33.8,32.0,30.07,NE,45,0.0,0.4,93,0.00,,,0.00,WUHU216HW,2013-01-11 07:59:00,